createdAt,value
2023-04-01T00:02:09.819Z,41.75
2023-04-01T00:07:15.345Z,47.00
2023-04-01T00:12:20.779Z,43.00
2023-04-01T00:17:26.162Z,39.00
2023-04-01T00:22:31.574Z,46.50
2023-04-01T00:27:37.086Z,40.50
2023-04-01T00:32:42.492Z,41.00
2023-04-01T00:37:48.769Z,48.33
2023-04-01T00:42:53.966Z,47.00
2023-04-01T00:48:02.234Z,43.25
2023-04-01T00:58:20.762Z,48.75
2023-04-01T01:03:25.984Z,43.75
2023-04-01T01:08:44.405Z,45.00
2023-04-01T01:14:48.036Z,45.00
2023-04-01T01:20:15.698Z,43.67
2023-04-01T01:25:51.362Z,48.50
2023-04-01T01:31:17.919Z,40.50
2023-04-01T01:36:26.060Z,45.67
2023-04-01T01:41:35.065Z,47.00
2023-04-01T01:46:44.088Z,47.00
2023-04-01T01:51:50.402Z,46.50
2023-04-01T01:57:04.450Z,47.33
2023-04-01T02:02:11.292Z,46.00
2023-04-01T02:07:44.935Z,50.00
2023-04-01T02:12:53.753Z,49.00
2023-04-01T02:18:00.248Z,49.75
2023-04-01T02:23:06.183Z,48.50
2023-04-01T02:28:13.714Z,48.00
2023-04-01T02:33:21.871Z,49.00
2023-04-01T02:38:28.526Z,49.00
2023-04-01T02:43:33.666Z,50.00
2023-04-01T02:48:39.629Z,49.67
2023-04-01T02:53:46.975Z,48.00
2023-04-01T02:58:52.948Z,46.33
2023-04-01T03:03:58.408Z,46.00
2023-04-01T03:09:04.091Z,45.00
2023-04-01T03:14:09.752Z,42.25
2023-04-01T03:19:14.941Z,47.00
2023-04-01T03:24:20.232Z,39.75
2023-04-01T03:29:26.145Z,43.00
2023-04-01T03:34:33.147Z,41.75
2023-04-01T03:39:39.503Z,46.25
2023-04-01T03:44:44.922Z,40.25
2023-04-01T03:49:50.777Z,42.00
2023-04-01T03:54:56.043Z,37.00
2023-04-01T04:00:01.542Z,39.00
2023-04-01T04:10:13.105Z,39.50
2023-04-01T04:15:19.151Z,38.75
2023-04-01T04:20:24.682Z,40.00
2023-04-01T04:25:30.050Z,37.00
2023-04-01T04:30:36.137Z,37.00
2023-04-01T04:35:42.753Z,35.50
2023-04-01T04:40:49.725Z,40.50
2023-04-01T04:45:55.319Z,34.50
2023-04-01T04:51:00.737Z,36.50
2023-04-01T04:56:06.267Z,38.00
2023-04-01T05:01:24.480Z,36.75
2023-04-01T05:06:31.741Z,36.00
2023-04-01T05:11:38.206Z,29.00
2023-04-01T05:16:43.634Z,29.00
2023-04-01T05:26:55.241Z,27.00
2023-04-01T05:32:03.554Z,31.00
2023-04-01T05:37:10.957Z,31.00
2023-04-01T05:42:18.010Z,30.00
2023-04-01T05:47:23.264Z,27.00
2023-04-01T05:52:29.101Z,29.00
2023-04-01T05:57:34.901Z,29.75
2023-04-01T06:02:44.194Z,30.25
2023-04-01T06:07:49.474Z,35.50
2023-04-01T06:12:59.811Z,36.00
2023-04-01T06:18:46.061Z,34.75
2023-04-01T06:24:19.938Z,37.75
2023-04-01T06:29:32.740Z,34.25
2023-04-01T06:34:57.869Z,34.00
2023-04-01T06:40:13.722Z,31.00
2023-04-01T06:45:48.972Z,35.75
2023-04-01T06:51:35.122Z,32.00
2023-04-01T06:57:05.284Z,35.50
2023-04-01T07:02:13.596Z,32.00
2023-04-01T07:07:40.049Z,35.00
2023-04-01T07:12:58.248Z,30.33
2023-04-01T07:18:45.630Z,34.00
2023-04-01T07:23:54.280Z,31.33
2023-04-01T07:29:18.549Z,39.00
2023-04-01T07:34:53.892Z,37.50
2023-04-01T07:40:12.137Z,35.75
2023-04-01T07:45:33.488Z,35.00
2023-04-01T07:51:06.311Z,34.00
2023-04-01T07:56:14.545Z,34.75
2023-04-01T08:01:44.814Z,34.25
2023-04-01T08:07:23.188Z,35.00
2023-04-01T08:13:06.568Z,34.00
2023-04-01T08:58:26.728Z,40.67
2023-04-01T09:04:31.037Z,42.00
2023-04-01T09:10:25.933Z,36.00
2023-04-01T09:16:00.648Z,35.00
2023-04-01T09:21:38.434Z,35.00
2023-04-01T09:26:59.785Z,37.00
2023-04-01T09:32:17.326Z,36.33
2023-04-01T09:37:53.575Z,34.50
2023-04-01T09:43:23.697Z,35.50
2023-04-01T09:49:06.388Z,34.00
2023-04-01T09:54:29.012Z,29.67
2023-04-01T10:00:18.404Z,31.00
2023-04-01T10:05:52.773Z,38.00
2023-04-01T10:11:37.541Z,38.00
2023-04-01T10:16:56.771Z,37.00
2023-04-01T10:22:26.042Z,38.00
2023-04-01T10:28:05.687Z,34.00
2023-04-01T10:34:05.344Z,36.00
2023-04-01T10:39:49.268Z,39.00
2023-04-01T10:45:31.171Z,39.00
2023-04-01T10:50:41.780Z,40.33
2023-04-01T10:56:20.677Z,46.33
2023-04-01T11:02:11.383Z,44.50
2023-04-01T11:08:02.856Z,39.67
2023-04-01T11:13:41.770Z,43.00
2023-04-01T11:18:57.395Z,42.00
2023-04-01T11:24:20.773Z,40.75
2023-04-01T11:30:08.361Z,41.50
2023-04-01T11:35:36.239Z,41.75
2023-04-01T11:40:44.965Z,42.33
2023-04-01T11:46:19.094Z,45.00
2023-04-01T11:52:00.111Z,43.50
2023-04-01T11:57:36.459Z,41.25
2023-04-01T12:03:10.436Z,44.00
2023-04-01T12:08:24.857Z,44.25
2023-04-01T12:13:32.676Z,41.75
2023-04-01T12:24:09.702Z,41.50
2023-04-01T12:29:47.354Z,39.00
2023-04-01T12:35:10.752Z,46.50
2023-04-01T12:40:34.216Z,48.00
2023-04-01T12:46:23.698Z,45.33
2023-04-01T12:51:48.783Z,49.75
2023-04-01T12:57:16.679Z,45.00
2023-04-01T13:03:02.870Z,45.00
2023-04-01T13:08:14.970Z,41.00
2023-04-01T13:13:37.646Z,37.67
2023-04-01T13:19:01.400Z,43.25
2023-04-01T13:29:46.214Z,48.00
2023-04-01T13:35:07.696Z,43.33
2023-04-01T13:40:55.669Z,45.00
2023-04-01T13:46:04.644Z,44.00
2023-04-01T13:51:35.452Z,41.75
2023-04-01T14:02:06.389Z,42.00
2023-04-01T14:07:53.758Z,38.00
2023-04-01T14:13:01.278Z,42.00
2023-04-01T14:18:18.132Z,45.67
2023-04-01T14:23:32.053Z,39.50
2023-04-01T14:28:48.995Z,45.25
2023-04-01T14:34:09.497Z,41.00
2023-04-01T14:39:53.906Z,41.00
2023-04-01T14:45:19.850Z,44.00
2023-04-01T14:50:33.053Z,42.00
2023-04-01T14:55:54.660Z,42.00
2023-04-01T15:01:24.807Z,45.00
2023-04-01T15:07:11.325Z,35.50
2023-04-01T15:12:24.719Z,38.00
2023-04-01T15:17:59.819Z,48.00
2023-04-01T15:23:26.305Z,45.00
2023-04-01T15:29:13.413Z,45.00
2023-04-01T15:34:36.548Z,40.67
2023-04-01T15:40:05.287Z,44.25
2023-04-01T15:45:40.769Z,44.25
2023-04-01T15:50:48.705Z,46.00
2023-04-01T15:56:03.076Z,41.00
2023-04-01T16:01:26.667Z,43.00
2023-04-01T16:06:37.907Z,38.25
2023-04-01T16:12:04.093Z,41.75
2023-04-01T16:17:59.481Z,44.00
2023-04-01T16:23:38.637Z,38.25
2023-04-01T16:29:10.190Z,42.00
2023-04-01T16:34:33.361Z,41.00
2023-04-01T16:40:18.474Z,35.75
2023-04-01T16:45:35.874Z,45.75
2023-04-01T16:51:03.000Z,43.00
2023-04-01T16:56:31.795Z,42.00
2023-04-01T17:01:59.232Z,45.75
2023-04-01T17:07:30.243Z,42.00
2023-04-01T17:12:47.368Z,42.00
2023-04-01T17:18:04.304Z,42.00
2023-04-01T17:23:25.292Z,47.75
2023-04-01T17:28:30.363Z,42.33
2023-04-01T17:33:58.178Z,42.25
2023-04-01T17:39:39.901Z,42.00
2023-04-01T17:45:00.145Z,45.00
2023-04-01T17:50:22.764Z,44.25
2023-04-01T17:55:31.030Z,45.33
2023-04-01T18:00:54.489Z,44.33
2023-04-01T18:06:28.713Z,38.33
2023-04-01T18:11:37.507Z,44.33
2023-04-01T18:17:15.984Z,45.00
2023-04-01T18:22:29.683Z,49.00
2023-04-01T18:32:59.809Z,41.75
2023-04-01T18:38:34.395Z,42.00
2023-04-01T18:44:05.529Z,45.00
2023-04-01T18:49:28.863Z,45.25
2023-04-01T18:54:43.633Z,44.25
2023-04-01T18:59:59.876Z,46.75
2023-04-01T19:05:17.565Z,45.50
2023-04-01T19:11:11.398Z,42.33
2023-04-01T19:16:53.944Z,45.00
2023-04-01T19:22:01.925Z,39.00
2023-04-01T19:32:24.556Z,43.50
2023-04-01T19:37:59.978Z,43.00
2023-04-01T19:43:10.277Z,39.33
2023-04-01T19:48:46.746Z,34.33
2023-04-01T19:54:15.286Z,40.33
2023-04-01T19:59:34.062Z,48.00
2023-04-01T20:04:50.490Z,48.00
2023-04-01T20:15:38.001Z,50.00
2023-04-01T20:20:53.944Z,48.00
2023-04-01T20:26:05.610Z,45.00
2023-04-01T20:31:28.612Z,40.25
2023-04-01T20:36:45.746Z,41.00
2023-04-01T20:42:05.752Z,43.00
2023-04-01T20:47:43.120Z,43.75
2023-04-01T20:53:04.891Z,42.00
2023-04-01T20:58:49.945Z,40.50
2023-04-01T21:04:31.572Z,41.00
2023-04-01T21:09:40.538Z,44.75
2023-04-01T21:15:01.785Z,47.00
2023-04-01T21:20:26.268Z,45.75
2023-04-01T21:25:49.350Z,47.00
2023-04-01T21:31:23.903Z,42.00
2023-04-01T21:36:59.741Z,45.33
2023-04-01T21:42:49.014Z,45.50
2023-04-01T21:48:05.814Z,47.50
2023-04-01T21:53:24.416Z,47.00
2023-04-01T21:59:11.134Z,42.00
2023-04-01T22:04:26.944Z,41.50
2023-04-01T22:09:51.611Z,46.67
2023-04-01T22:15:14.650Z,45.00
2023-04-01T22:20:25.432Z,42.00
2023-04-01T22:25:47.734Z,43.00
2023-04-01T22:30:58.669Z,42.75
2023-04-01T22:36:27.726Z,44.00
2023-04-01T22:41:56.127Z,42.00
2023-04-01T22:47:36.642Z,43.33
2023-04-01T22:52:46.372Z,43.50
2023-04-01T22:58:02.150Z,45.33
2023-04-01T23:03:48.870Z,45.00
2023-04-01T23:09:21.754Z,41.33
2023-04-01T23:14:34.743Z,39.00
2023-04-01T23:20:06.964Z,37.50
2023-04-01T23:25:31.349Z,42.75
2023-04-01T23:30:42.472Z,48.00
2023-04-01T23:35:59.588Z,42.50
2023-04-01T23:41:07.127Z,48.33
2023-04-01T23:46:14.943Z,47.00
2023-04-01T23:51:27.817Z,40.00
2023-04-01T23:56:46.076Z,45.00
